sensor_id;sensor_type;location;lat;lon;timestamp;P1;durP1;ratioP1;P2;durP2;ratioP2
82635;SDS011;72317;37.280;-121.948;2023-09-08T00:00:11;10.38;;;4.32;;
82635;SDS011;72317;37.280;-121.948;2023-09-08T00:02:38;8.68;;;3.95;;
82635;SDS011;72317;37.280;-121.948;2023-09-08T00:05:04;11.35;;;3.83;;
82635;SDS011;72317;37.280;-121.948;2023-09-08T00:07:31;10.93;;;4.03;;
82635;SDS011;72317;37.280;-121.948;2023-09-08T00:09:57;10.70;;;3.67;;
82635;SDS011;72317;37.280;-121.948;2023-09-08T00:12:23;9.07;;;4.03;;
82635;SDS011;72317;37.280;-121.948;2023-09-08T00:14:49;8.05;;;3.47;;
82635;SDS011;72317;37.280;-121.948;2023-09-08T00:17:15;8.48;;;3.60;;
82635;SDS011;72317;37.280;-121.948;2023-09-08T00:19:41;9.45;;;3.58;;
82635;SDS011;72317;37.280;-121.948;2023-09-08T00:22:08;6.63;;;3.20;;
82635;SDS011;72317;37.280;-121.948;2023-09-08T00:24:34;7.75;;;3.63;;
82635;SDS011;72317;37.280;-121.948;2023-09-08T00:27:00;8.20;;;3.60;;
82635;SDS011;72317;37.280;-121.948;2023-09-08T00:29:27;8.27;;;3.35;;
82635;SDS011;72317;37.280;-121.948;2023-09-08T00:31:53;8.57;;;3.80;;
82635;SDS011;72317;37.280;-121.948;2023-09-08T00:34:19;8.45;;;3.47;;
82635;SDS011;72317;37.280;-121.948;2023-09-08T00:36:45;7.35;;;3.20;;
82635;SDS011;72317;37.280;-121.948;2023-09-08T00:39:11;9.20;;;3.60;;
82635;SDS011;72317;37.280;-121.948;2023-09-08T00:41:38;9.48;;;3.13;;
82635;SDS011;72317;37.280;-121.948;2023-09-08T00:44:04;7.15;;;3.40;;
82635;SDS011;72317;37.280;-121.948;2023-09-08T00:46:30;7.68;;;3.20;;
82635;SDS011;72317;37.280;-121.948;2023-09-08T00:48:56;7.07;;;3.30;;
82635;SDS011;72317;37.280;-121.948;2023-09-08T00:51:23;6.22;;;3.22;;
82635;SDS011;72317;37.280;-121.948;2023-09-08T00:53:49;7.00;;;2.97;;
82635;SDS011;72317;37.280;-121.948;2023-09-08T00:56:15;6.70;;;3.10;;
82635;SDS011;72317;37.280;-121.948;2023-09-08T00:58:42;7.22;;;3.20;;
82635;SDS011;72317;37.280;-121.948;2023-09-08T01:01:08;10.25;;;3.33;;
82635;SDS011;72317;37.280;-121.948;2023-09-08T01:03:34;6.30;;;3.10;;
82635;SDS011;72317;37.280;-121.948;2023-09-08T01:06:00;8.32;;;3.45;;
82635;SDS011;72317;37.280;-121.948;2023-09-08T01:08:27;7.47;;;3.38;;
82635;SDS011;72317;37.280;-121.948;2023-09-08T01:10:54;7.10;;;2.85;;
82635;SDS011;72317;37.280;-121.948;2023-09-08T01:13:21;5.85;;;2.65;;
82635;SDS011;72317;37.280;-121.948;2023-09-08T01:15:47;6.10;;;2.80;;
82635;SDS011;72317;37.280;-121.948;2023-09-08T01:18:14;4.47;;;2.60;;
82635;SDS011;72317;37.280;-121.948;2023-09-08T01:23:18;3.78;;;2.50;;
82635;SDS011;72317;37.280;-121.948;2023-09-08T01:25:46;7.53;;;2.33;;
82635;SDS011;72317;37.280;-121.948;2023-09-08T01:28:24;7.82;;;2.72;;
82635;SDS011;72317;37.280;-121.948;2023-09-08T01:30:52;4.45;;;2.30;;
82635;SDS011;72317;37.280;-121.948;2023-09-08T01:33:19;4.53;;;1.98;;
82635;SDS011;72317;37.280;-121.948;2023-09-08T01:35:47;3.40;;;2.17;;
82635;SDS011;72317;37.280;-121.948;2023-09-08T01:38:14;3.88;;;2.40;;
82635;SDS011;72317;37.280;-121.948;2023-09-08T01:40:41;4.15;;;2.15;;
82635;SDS011;72317;37.280;-121.948;2023-09-08T01:43:07;2.67;;;1.95;;
82635;SDS011;72317;37.280;-121.948;2023-09-08T01:45:33;3.92;;;2.20;;
82635;SDS011;72317;37.280;-121.948;2023-09-08T01:48:00;3.65;;;1.88;;
82635;SDS011;72317;37.280;-121.948;2023-09-08T01:50:26;3.65;;;2.10;;
82635;SDS011;72317;37.280;-121.948;2023-09-08T01:52:52;3.10;;;1.92;;
82635;SDS011;72317;37.280;-121.948;2023-09-08T01:55:18;3.38;;;2.03;;
82635;SDS011;72317;37.280;-121.948;2023-09-08T01:57:45;4.03;;;2.08;;
82635;SDS011;72317;37.280;-121.948;2023-09-08T02:00:12;4.53;;;2.38;;
82635;SDS011;72317;37.280;-121.948;2023-09-08T02:02:38;4.88;;;2.00;;
82635;SDS011;72317;37.280;-121.948;2023-09-08T02:05:05;3.53;;;2.20;;
82635;SDS011;72317;37.280;-121.948;2023-09-08T02:07:31;2.45;;;1.80;;
82635;SDS011;72317;37.280;-121.948;2023-09-08T02:09:58;5.95;;;2.85;;
82635;SDS011;72317;37.280;-121.948;2023-09-08T02:12:24;6.00;;;2.50;;
82635;SDS011;72317;37.280;-121.948;2023-09-08T02:14:50;5.45;;;2.50;;
82635;SDS011;72317;37.280;-121.948;2023-09-08T02:17:17;4.63;;;2.45;;
82635;SDS011;72317;37.280;-121.948;2023-09-08T02:19:43;4.78;;;2.30;;
82635;SDS011;72317;37.280;-121.948;2023-09-08T02:22:10;4.53;;;2.50;;
82635;SDS011;72317;37.280;-121.948;2023-09-08T02:24:36;5.20;;;2.40;;
82635;SDS011;72317;37.280;-121.948;2023-09-08T02:27:03;5.55;;;2.40;;
82635;SDS011;72317;37.280;-121.948;2023-09-08T02:29:29;4.25;;;2.15;;
82635;SDS011;72317;37.280;-121.948;2023-09-08T02:31:57;4.50;;;2.08;;
82635;SDS011;72317;37.280;-121.948;2023-09-08T02:34:23;4.88;;;2.58;;
82635;SDS011;72317;37.280;-121.948;2023-09-08T02:36:49;5.10;;;2.30;;
82635;SDS011;72317;37.280;-121.948;2023-09-08T02:39:16;4.75;;;2.17;;
82635;SDS011;72317;37.280;-121.948;2023-09-08T02:41:42;5.05;;;2.17;;
82635;SDS011;72317;37.280;-121.948;2023-09-08T02:44:08;4.32;;;2.13;;
82635;SDS011;72317;37.280;-121.948;2023-09-08T02:46:34;5.80;;;2.60;;
82635;SDS011;72317;37.280;-121.948;2023-09-08T02:49:00;4.07;;;2.38;;
82635;SDS011;72317;37.280;-121.948;2023-09-08T02:51:27;4.30;;;2.20;;
82635;SDS011;72317;37.280;-121.948;2023-09-08T02:53:53;3.78;;;2.10;;
82635;SDS011;72317;37.280;-121.948;2023-09-08T02:56:19;4.72;;;2.10;;
82635;SDS011;72317;37.280;-121.948;2023-09-08T02:58:45;6.70;;;2.17;;
82635;SDS011;72317;37.280;-121.948;2023-09-08T03:01:12;3.25;;;2.22;;
82635;SDS011;72317;37.280;-121.948;2023-09-08T03:03:40;3.67;;;2.28;;
82635;SDS011;72317;37.280;-121.948;2023-09-08T03:06:09;3.95;;;2.00;;
82635;SDS011;72317;37.280;-121.948;2023-09-08T03:08:36;4.28;;;2.13;;
82635;SDS011;72317;37.280;-121.948;2023-09-08T03:11:03;3.63;;;2.00;;
82635;SDS011;72317;37.280;-121.948;2023-09-08T03:13:34;4.97;;;2.20;;
82635;SDS011;72317;37.280;-121.948;2023-09-08T03:16:07;4.88;;;2.20;;
82635;SDS011;72317;37.280;-121.948;2023-09-08T03:18:35;4.55;;;2.30;;
82635;SDS011;72317;37.280;-121.948;2023-09-08T03:21:04;5.70;;;2.20;;
82635;SDS011;72317;37.280;-121.948;2023-09-08T03:23:38;4.82;;;2.30;;
82635;SDS011;72317;37.280;-121.948;2023-09-08T03:26:05;4.22;;;2.10;;
82635;SDS011;72317;37.280;-121.948;2023-09-08T03:28:32;3.55;;;2.08;;
82635;SDS011;72317;37.280;-121.948;2023-09-08T03:31:00;3.75;;;2.38;;
82635;SDS011;72317;37.280;-121.948;2023-09-08T03:33:27;4.00;;;2.30;;
82635;SDS011;72317;37.280;-121.948;2023-09-08T03:35:53;4.43;;;2.42;;
82635;SDS011;72317;37.280;-121.948;2023-09-08T03:38:20;4.93;;;2.20;;
82635;SDS011;72317;37.280;-121.948;2023-09-08T03:40:47;4.20;;;2.40;;
82635;SDS011;72317;37.280;-121.948;2023-09-08T03:43:13;3.40;;;2.10;;
82635;SDS011;72317;37.280;-121.948;2023-09-08T03:45:40;3.42;;;1.95;;
82635;SDS011;72317;37.280;-121.948;2023-09-08T03:48:07;3.05;;;2.05;;
82635;SDS011;72317;37.280;-121.948;2023-09-08T03:50:33;5.47;;;1.98;;
82635;SDS011;72317;37.280;-121.948;2023-09-08T03:52:59;4.93;;;2.20;;
82635;SDS011;72317;37.280;-121.948;2023-09-08T03:55:26;4.38;;;2.25;;
82635;SDS011;72317;37.280;-121.948;2023-09-08T03:57:52;2.92;;;1.77;;
82635;SDS011;72317;37.280;-121.948;2023-09-08T04:00:19;4.28;;;2.00;;
82635;SDS011;72317;37.280;-121.948;2023-09-08T04:02:46;4.15;;;2.10;;
82635;SDS011;72317;37.280;-121.948;2023-09-08T04:05:14;3.40;;;2.20;;
82635;SDS011;72317;37.280;-121.948;2023-09-08T04:07:41;3.60;;;2.00;;
82635;SDS011;72317;37.280;-121.948;2023-09-08T04:10:08;5.25;;;2.40;;
82635;SDS011;72317;37.280;-121.948;2023-09-08T04:12:34;3.95;;;1.98;;
82635;SDS011;72317;37.280;-121.948;2023-09-08T04:15:00;3.47;;;1.90;;
82635;SDS011;72317;37.280;-121.948;2023-09-08T04:17:26;4.15;;;2.15;;
82635;SDS011;72317;37.280;-121.948;2023-09-08T04:19:53;3.22;;;2.00;;
82635;SDS011;72317;37.280;-121.948;2023-09-08T04:22:19;3.58;;;1.73;;
82635;SDS011;72317;37.280;-121.948;2023-09-08T04:24:45;3.47;;;1.92;;
82635;SDS011;72317;37.280;-121.948;2023-09-08T04:27:11;3.45;;;1.92;;
82635;SDS011;72317;37.280;-121.948;2023-09-08T04:29:37;3.42;;;1.90;;
82635;SDS011;72317;37.280;-121.948;2023-09-08T04:32:03;5.03;;;2.00;;
82635;SDS011;72317;37.280;-121.948;2023-09-08T04:34:40;4.10;;;2.10;;
82635;SDS011;72317;37.280;-121.948;2023-09-08T04:37:07;4.43;;;2.22;;
82635;SDS011;72317;37.280;-121.948;2023-09-08T04:39:34;3.20;;;2.00;;
82635;SDS011;72317;37.280;-121.948;2023-09-08T04:42:02;2.92;;;2.17;;
82635;SDS011;72317;37.280;-121.948;2023-09-08T04:44:29;3.75;;;2.17;;
82635;SDS011;72317;37.280;-121.948;2023-09-08T04:46:55;3.75;;;2.50;;
82635;SDS011;72317;37.280;-121.948;2023-09-08T04:49:21;4.47;;;2.60;;
82635;SDS011;72317;37.280;-121.948;2023-09-08T04:51:47;5.05;;;2.10;;
82635;SDS011;72317;37.280;-121.948;2023-09-08T04:54:13;3.28;;;1.90;;
82635;SDS011;72317;37.280;-121.948;2023-09-08T04:56:39;3.28;;;1.90;;
82635;SDS011;72317;37.280;-121.948;2023-09-08T04:59:06;5.38;;;2.10;;
82635;SDS011;72317;37.280;-121.948;2023-09-08T05:01:32;3.30;;;1.77;;
82635;SDS011;72317;37.280;-121.948;2023-09-08T05:04:01;4.90;;;2.00;;
82635;SDS011;72317;37.280;-121.948;2023-09-08T05:06:28;4.82;;;1.90;;
82635;SDS011;72317;37.280;-121.948;2023-09-08T05:08:54;2.97;;;2.05;;
82635;SDS011;72317;37.280;-121.948;2023-09-08T05:11:21;2.25;;;1.83;;
82635;SDS011;72317;37.280;-121.948;2023-09-08T05:13:47;4.93;;;2.00;;
82635;SDS011;72317;37.280;-121.948;2023-09-08T05:16:13;3.67;;;1.90;;
82635;SDS011;72317;37.280;-121.948;2023-09-08T05:18:39;4.78;;;1.95;;
82635;SDS011;72317;37.280;-121.948;2023-09-08T05:21:07;3.42;;;2.28;;
82635;SDS011;72317;37.280;-121.948;2023-09-08T05:23:33;3.88;;;1.88;;
82635;SDS011;72317;37.280;-121.948;2023-09-08T05:25:59;3.80;;;1.90;;
82635;SDS011;72317;37.280;-121.948;2023-09-08T05:28:26;3.85;;;1.77;;
82635;SDS011;72317;37.280;-121.948;2023-09-08T05:30:53;3.15;;;1.90;;
82635;SDS011;72317;37.280;-121.948;2023-09-08T05:33:19;3.42;;;1.80;;
82635;SDS011;72317;37.280;-121.948;2023-09-08T05:35:45;4.35;;;1.92;;
82635;SDS011;72317;37.280;-121.948;2023-09-08T05:38:12;2.65;;;1.85;;
82635;SDS011;72317;37.280;-121.948;2023-09-08T05:40:38;4.25;;;1.98;;
82635;SDS011;72317;37.280;-121.948;2023-09-08T05:43:05;3.95;;;2.00;;
82635;SDS011;72317;37.280;-121.948;2023-09-08T05:45:34;4.47;;;2.10;;
82635;SDS011;72317;37.280;-121.948;2023-09-08T05:48:00;3.78;;;2.03;;
82635;SDS011;72317;37.280;-121.948;2023-09-08T05:50:27;5.13;;;2.45;;
82635;SDS011;72317;37.280;-121.948;2023-09-08T05:52:53;4.55;;;2.00;;
82635;SDS011;72317;37.280;-121.948;2023-09-08T05:55:19;4.35;;;2.05;;
82635;SDS011;72317;37.280;-121.948;2023-09-08T05:57:46;3.17;;;1.90;;
82635;SDS011;72317;37.280;-121.948;2023-09-08T06:00:12;4.80;;;1.95;;
82635;SDS011;72317;37.280;-121.948;2023-09-08T06:02:38;4.10;;;2.20;;
82635;SDS011;72317;37.280;-121.948;2023-09-08T06:05:05;6.68;;;2.25;;
82635;SDS011;72317;37.280;-121.948;2023-09-08T06:07:31;4.95;;;2.20;;
82635;SDS011;72317;37.280;-121.948;2023-09-08T06:09:57;5.07;;;2.15;;
82635;SDS011;72317;37.280;-121.948;2023-09-08T06:12:23;3.65;;;2.03;;
82635;SDS011;72317;37.280;-121.948;2023-09-08T06:14:49;3.45;;;2.08;;
82635;SDS011;72317;37.280;-121.948;2023-09-08T06:17:15;4.60;;;2.17;;
82635;SDS011;72317;37.280;-121.948;2023-09-08T06:19:41;4.97;;;2.30;;
82635;SDS011;72317;37.280;-121.948;2023-09-08T06:22:08;3.05;;;2.00;;
82635;SDS011;72317;37.280;-121.948;2023-09-08T06:24:34;2.38;;;1.75;;
82635;SDS011;72317;37.280;-121.948;2023-09-08T06:27:00;5.13;;;2.30;;
82635;SDS011;72317;37.280;-121.948;2023-09-08T06:29:27;3.45;;;2.08;;
82635;SDS011;72317;37.280;-121.948;2023-09-08T06:31:53;3.63;;;2.50;;
82635;SDS011;72317;37.280;-121.948;2023-09-08T06:34:19;3.85;;;2.25;;
82635;SDS011;72317;37.280;-121.948;2023-09-08T06:36:47;5.07;;;2.10;;
82635;SDS011;72317;37.280;-121.948;2023-09-08T06:39:14;4.50;;;2.40;;
82635;SDS011;72317;37.280;-121.948;2023-09-08T06:41:40;3.30;;;2.08;;
82635;SDS011;72317;37.280;-121.948;2023-09-08T06:44:06;4.13;;;2.20;;
82635;SDS011;72317;37.280;-121.948;2023-09-08T06:46:32;4.72;;;2.08;;
82635;SDS011;72317;37.280;-121.948;2023-09-08T06:48:58;4.93;;;2.38;;
82635;SDS011;72317;37.280;-121.948;2023-09-08T06:51:24;4.03;;;2.35;;
82635;SDS011;72317;37.280;-121.948;2023-09-08T06:53:54;2.78;;;2.00;;
82635;SDS011;72317;37.280;-121.948;2023-09-08T06:56:25;2.50;;;2.15;;
82635;SDS011;72317;37.280;-121.948;2023-09-08T06:58:51;3.75;;;2.20;;
82635;SDS011;72317;37.280;-121.948;2023-09-08T07:01:17;3.38;;;2.15;;
82635;SDS011;72317;37.280;-121.948;2023-09-08T07:03:43;3.75;;;2.38;;
82635;SDS011;72317;37.280;-121.948;2023-09-08T07:06:10;5.45;;;2.78;;
82635;SDS011;72317;37.280;-121.948;2023-09-08T07:08:36;3.35;;;2.30;;
82635;SDS011;72317;37.280;-121.948;2023-09-08T07:11:03;3.47;;;2.42;;
82635;SDS011;72317;37.280;-121.948;2023-09-08T07:13:29;3.78;;;2.30;;
82635;SDS011;72317;37.280;-121.948;2023-09-08T07:15:55;4.32;;;2.55;;
82635;SDS011;72317;37.280;-121.948;2023-09-08T07:18:21;4.97;;;2.00;;
82635;SDS011;72317;37.280;-121.948;2023-09-08T07:20:47;4.50;;;2.38;;
82635;SDS011;72317;37.280;-121.948;2023-09-08T07:23:14;4.03;;;2.30;;
82635;SDS011;72317;37.280;-121.948;2023-09-08T07:25:49;5.35;;;2.78;;
82635;SDS011;72317;37.280;-121.948;2023-09-08T07:28:15;2.45;;;2.00;;
82635;SDS011;72317;37.280;-121.948;2023-09-08T07:30:42;3.03;;;2.20;;
82635;SDS011;72317;37.280;-121.948;2023-09-08T07:33:08;4.80;;;2.30;;
82635;SDS011;72317;37.280;-121.948;2023-09-08T07:35:38;4.03;;;2.55;;
82635;SDS011;72317;37.280;-121.948;2023-09-08T07:38:05;4.38;;;2.50;;
82635;SDS011;72317;37.280;-121.948;2023-09-08T07:40:32;3.50;;;2.45;;
82635;SDS011;72317;37.280;-121.948;2023-09-08T07:42:59;4.03;;;2.45;;
82635;SDS011;72317;37.280;-121.948;2023-09-08T07:45:25;2.55;;;1.95;;
82635;SDS011;72317;37.280;-121.948;2023-09-08T07:47:51;7.10;;;2.50;;
82635;SDS011;72317;37.280;-121.948;2023-09-08T07:50:21;3.30;;;2.20;;
82635;SDS011;72317;37.280;-121.948;2023-09-08T07:52:49;3.63;;;2.30;;
82635;SDS011;72317;37.280;-121.948;2023-09-08T07:55:16;4.65;;;2.40;;
82635;SDS011;72317;37.280;-121.948;2023-09-08T07:57:43;5.07;;;2.30;;
82635;SDS011;72317;37.280;-121.948;2023-09-08T08:00:12;4.35;;;2.58;;
82635;SDS011;72317;37.280;-121.948;2023-09-08T08:02:42;4.45;;;2.30;;
82635;SDS011;72317;37.280;-121.948;2023-09-08T08:05:11;4.22;;;2.45;;
82635;SDS011;72317;37.280;-121.948;2023-09-08T08:07:40;3.30;;;2.28;;
82635;SDS011;72317;37.280;-121.948;2023-09-08T08:10:07;3.22;;;2.30;;
82635;SDS011;72317;37.280;-121.948;2023-09-08T08:12:35;4.15;;;2.58;;
82635;SDS011;72317;37.280;-121.948;2023-09-08T08:15:02;4.22;;;1.92;;
82635;SDS011;72317;37.280;-121.948;2023-09-08T08:17:29;4.40;;;2.60;;
82635;SDS011;72317;37.280;-121.948;2023-09-08T08:19:56;4.60;;;2.60;;
82635;SDS011;72317;37.280;-121.948;2023-09-08T08:22:32;4.95;;;2.70;;
82635;SDS011;72317;37.280;-121.948;2023-09-08T08:24:59;3.60;;;2.40;;
82635;SDS011;72317;37.280;-121.948;2023-09-08T08:27:26;4.10;;;2.60;;
82635;SDS011;72317;37.280;-121.948;2023-09-08T08:29:52;3.72;;;2.40;;
82635;SDS011;72317;37.280;-121.948;2023-09-08T08:32:18;7.90;;;2.75;;
82635;SDS011;72317;37.280;-121.948;2023-09-08T08:34:45;4.22;;;2.78;;
82635;SDS011;72317;37.280;-121.948;2023-09-08T08:37:11;4.82;;;2.70;;
82635;SDS011;72317;37.280;-121.948;2023-09-08T08:39:37;6.50;;;2.80;;
82635;SDS011;72317;37.280;-121.948;2023-09-08T08:42:07;4.85;;;2.65;;
82635;SDS011;72317;37.280;-121.948;2023-09-08T08:44:34;7.55;;;2.88;;
82635;SDS011;72317;37.280;-121.948;2023-09-08T08:47:03;5.15;;;2.92;;
82635;SDS011;72317;37.280;-121.948;2023-09-08T08:49:31;4.68;;;2.63;;
82635;SDS011;72317;37.280;-121.948;2023-09-08T08:51:58;3.78;;;2.47;;
82635;SDS011;72317;37.280;-121.948;2023-09-08T08:54:25;7.05;;;2.90;;
82635;SDS011;72317;37.280;-121.948;2023-09-08T08:56:52;4.30;;;2.75;;
82635;SDS011;72317;37.280;-121.948;2023-09-08T08:59:18;5.63;;;2.85;;
82635;SDS011;72317;37.280;-121.948;2023-09-08T09:01:44;4.90;;;3.08;;
82635;SDS011;72317;37.280;-121.948;2023-09-08T09:04:11;5.13;;;2.97;;
82635;SDS011;72317;37.280;-121.948;2023-09-08T09:06:39;8.10;;;3.05;;
82635;SDS011;72317;37.280;-121.948;2023-09-08T09:09:05;4.45;;;2.75;;
82635;SDS011;72317;37.280;-121.948;2023-09-08T09:11:33;6.30;;;2.85;;
82635;SDS011;72317;37.280;-121.948;2023-09-08T09:13:59;6.20;;;2.97;;
82635;SDS011;72317;37.280;-121.948;2023-09-08T09:16:25;5.57;;;2.85;;
82635;SDS011;72317;37.280;-121.948;2023-09-08T09:18:55;6.68;;;3.17;;
82635;SDS011;72317;37.280;-121.948;2023-09-08T09:21:23;6.60;;;3.40;;
82635;SDS011;72317;37.280;-121.948;2023-09-08T09:23:49;6.55;;;2.97;;
82635;SDS011;72317;37.280;-121.948;2023-09-08T09:26:23;4.95;;;2.75;;
82635;SDS011;72317;37.280;-121.948;2023-09-08T09:28:51;5.70;;;2.70;;
82635;SDS011;72317;37.280;-121.948;2023-09-08T09:31:22;4.68;;;3.10;;
82635;SDS011;72317;37.280;-121.948;2023-09-08T09:34:03;4.60;;;3.13;;
82635;SDS011;72317;37.280;-121.948;2023-09-08T09:36:30;7.75;;;3.03;;
82635;SDS011;72317;37.280;-121.948;2023-09-08T09:39:00;4.43;;;2.75;;
82635;SDS011;72317;37.280;-121.948;2023-09-08T09:41:29;7.82;;;3.10;;
82635;SDS011;72317;37.280;-121.948;2023-09-08T09:43:56;5.97;;;3.08;;
82635;SDS011;72317;37.280;-121.948;2023-09-08T09:46:22;5.03;;;3.22;;
82635;SDS011;72317;37.280;-121.948;2023-09-08T09:48:54;5.95;;;3.42;;
82635;SDS011;72317;37.280;-121.948;2023-09-08T09:51:22;5.95;;;3.05;;
82635;SDS011;72317;37.280;-121.948;2023-09-08T09:53:51;5.85;;;3.05;;
82635;SDS011;72317;37.280;-121.948;2023-09-08T09:56:17;5.10;;;3.30;;
82635;SDS011;72317;37.280;-121.948;2023-09-08T09:58:45;9.80;;;3.42;;
82635;SDS011;72317;37.280;-121.948;2023-09-08T10:01:12;8.75;;;3.00;;
82635;SDS011;72317;37.280;-121.948;2023-09-08T10:03:39;8.30;;;3.45;;
82635;SDS011;72317;37.280;-121.948;2023-09-08T10:06:05;5.85;;;3.20;;
82635;SDS011;72317;37.280;-121.948;2023-09-08T10:08:33;6.15;;;3.30;;
82635;SDS011;72317;37.280;-121.948;2023-09-08T10:11:06;7.15;;;3.20;;
82635;SDS011;72317;37.280;-121.948;2023-09-08T10:13:38;6.03;;;3.17;;
82635;SDS011;72317;37.280;-121.948;2023-09-08T10:16:06;8.27;;;3.60;;
82635;SDS011;72317;37.280;-121.948;2023-09-08T10:18:34;7.88;;;3.33;;
82635;SDS011;72317;37.280;-121.948;2023-09-08T10:21:02;7.63;;;3.17;;
82635;SDS011;72317;37.280;-121.948;2023-09-08T10:24:04;6.97;;;3.67;;
82635;SDS011;72317;37.280;-121.948;2023-09-08T10:26:30;6.25;;;3.35;;
82635;SDS011;72317;37.280;-121.948;2023-09-08T10:28:59;5.47;;;3.25;;
82635;SDS011;72317;37.280;-121.948;2023-09-08T10:31:27;3.53;;;2.72;;
82635;SDS011;72317;37.280;-121.948;2023-09-08T10:33:57;4.38;;;2.70;;
82635;SDS011;72317;37.280;-121.948;2023-09-08T10:36:23;3.28;;;2.65;;
82635;SDS011;72317;37.280;-121.948;2023-09-08T10:38:50;3.17;;;2.53;;
82635;SDS011;72317;37.280;-121.948;2023-09-08T10:43:56;4.22;;;2.60;;
82635;SDS011;72317;37.280;-121.948;2023-09-08T10:46:28;4.03;;;2.72;;
82635;SDS011;72317;37.280;-121.948;2023-09-08T10:49:03;5.00;;;3.00;;
82635;SDS011;72317;37.280;-121.948;2023-09-08T10:51:32;3.78;;;2.70;;
82635;SDS011;72317;37.280;-121.948;2023-09-08T10:54:00;5.85;;;3.13;;
82635;SDS011;72317;37.280;-121.948;2023-09-08T10:56:46;5.93;;;2.92;;
82635;SDS011;72317;37.280;-121.948;2023-09-08T10:59:15;6.95;;;2.97;;
82635;SDS011;72317;37.280;-121.948;2023-09-08T11:01:41;4.10;;;2.83;;
82635;SDS011;72317;37.280;-121.948;2023-09-08T11:04:07;4.75;;;2.85;;
82635;SDS011;72317;37.280;-121.948;2023-09-08T11:06:36;3.92;;;2.60;;
82635;SDS011;72317;37.280;-121.948;2023-09-08T11:09:06;5.05;;;3.17;;
82635;SDS011;72317;37.280;-121.948;2023-09-08T11:11:33;4.95;;;2.90;;
82635;SDS011;72317;37.280;-121.948;2023-09-08T11:14:02;5.75;;;3.10;;
82635;SDS011;72317;37.280;-121.948;2023-09-08T11:16:28;5.38;;;2.97;;
82635;SDS011;72317;37.280;-121.948;2023-09-08T11:18:58;5.50;;;2.95;;
82635;SDS011;72317;37.280;-121.948;2023-09-08T11:21:26;6.00;;;3.05;;
82635;SDS011;72317;37.280;-121.948;2023-09-08T11:23:59;8.13;;;3.40;;
82635;SDS011;72317;37.280;-121.948;2023-09-08T11:26:32;4.47;;;2.70;;
82635;SDS011;72317;37.280;-121.948;2023-09-08T11:29:00;4.22;;;2.80;;
82635;SDS011;72317;37.280;-121.948;2023-09-08T11:31:26;4.40;;;2.63;;
82635;SDS011;72317;37.280;-121.948;2023-09-08T11:33:54;8.57;;;3.15;;
82635;SDS011;72317;37.280;-121.948;2023-09-08T11:36:21;5.95;;;3.10;;
82635;SDS011;72317;37.280;-121.948;2023-09-08T11:38:47;3.72;;;2.78;;
82635;SDS011;72317;37.280;-121.948;2023-09-08T11:41:13;4.60;;;3.13;;
82635;SDS011;72317;37.280;-121.948;2023-09-08T11:43:39;5.03;;;3.05;;
82635;SDS011;72317;37.280;-121.948;2023-09-08T11:46:06;5.07;;;2.80;;
82635;SDS011;72317;37.280;-121.948;2023-09-08T11:48:32;5.00;;;2.85;;
82635;SDS011;72317;37.280;-121.948;2023-09-08T11:50:58;6.10;;;2.78;;
82635;SDS011;72317;37.280;-121.948;2023-09-08T11:53:25;6.03;;;3.10;;
82635;SDS011;72317;37.280;-121.948;2023-09-08T11:55:52;6.22;;;3.50;;
82635;SDS011;72317;37.280;-121.948;2023-09-08T11:58:18;6.00;;;2.88;;
82635;SDS011;72317;37.280;-121.948;2023-09-08T12:00:46;6.13;;;3.50;;
82635;SDS011;72317;37.280;-121.948;2023-09-08T12:03:16;7.97;;;5.30;;
82635;SDS011;72317;37.280;-121.948;2023-09-08T12:05:50;8.73;;;6.25;;
82635;SDS011;72317;37.280;-121.948;2023-09-08T12:08:17;10.30;;;5.88;;
82635;SDS011;72317;37.280;-121.948;2023-09-08T12:10:44;9.10;;;4.85;;
82635;SDS011;72317;37.280;-121.948;2023-09-08T12:13:10;8.63;;;4.47;;
82635;SDS011;72317;37.280;-121.948;2023-09-08T12:15:39;5.47;;;3.80;;
82635;SDS011;72317;37.280;-121.948;2023-09-08T12:18:15;5.53;;;3.60;;
82635;SDS011;72317;37.280;-121.948;2023-09-08T12:20:42;5.82;;;3.47;;
82635;SDS011;72317;37.280;-121.948;2023-09-08T12:23:18;6.05;;;3.33;;
82635;SDS011;72317;37.280;-121.948;2023-09-08T12:25:52;6.13;;;3.42;;
82635;SDS011;72317;37.280;-121.948;2023-09-08T12:28:19;3.97;;;2.90;;
82635;SDS011;72317;37.280;-121.948;2023-09-08T12:30:46;5.43;;;2.83;;
82635;SDS011;72317;37.280;-121.948;2023-09-08T12:33:13;4.65;;;3.03;;
82635;SDS011;72317;37.280;-121.948;2023-09-08T12:35:45;5.22;;;2.90;;
82635;SDS011;72317;37.280;-121.948;2023-09-08T12:38:13;4.80;;;3.08;;
82635;SDS011;72317;37.280;-121.948;2023-09-08T12:40:40;5.32;;;3.03;;
82635;SDS011;72317;37.280;-121.948;2023-09-08T12:43:06;5.07;;;3.03;;
82635;SDS011;72317;37.280;-121.948;2023-09-08T12:45:32;3.97;;;2.95;;
82635;SDS011;72317;37.280;-121.948;2023-09-08T12:48:00;5.28;;;3.05;;
82635;SDS011;72317;37.280;-121.948;2023-09-08T12:50:27;4.80;;;2.88;;
82635;SDS011;72317;37.280;-121.948;2023-09-08T12:52:54;5.47;;;2.83;;
82635;SDS011;72317;37.280;-121.948;2023-09-08T12:55:20;5.22;;;3.10;;
82635;SDS011;72317;37.280;-121.948;2023-09-08T12:57:46;5.13;;;2.88;;
82635;SDS011;72317;37.280;-121.948;2023-09-08T13:00:13;5.95;;;3.00;;
82635;SDS011;72317;37.280;-121.948;2023-09-08T13:02:40;4.70;;;2.95;;
82635;SDS011;72317;37.280;-121.948;2023-09-08T13:05:07;4.85;;;2.60;;
82635;SDS011;72317;37.280;-121.948;2023-09-08T13:07:33;5.07;;;3.13;;
82635;SDS011;72317;37.280;-121.948;2023-09-08T13:09:59;4.70;;;2.75;;
82635;SDS011;72317;37.280;-121.948;2023-09-08T13:12:25;6.85;;;2.60;;
82635;SDS011;72317;37.280;-121.948;2023-09-08T13:15:10;3.92;;;2.50;;
82635;SDS011;72317;37.280;-121.948;2023-09-08T13:17:37;5.63;;;3.15;;
82635;SDS011;72317;37.280;-121.948;2023-09-08T13:20:03;6.05;;;3.17;;
82635;SDS011;72317;37.280;-121.948;2023-09-08T13:22:31;4.65;;;2.83;;
82635;SDS011;72317;37.280;-121.948;2023-09-08T13:24:57;5.43;;;2.83;;
82635;SDS011;72317;37.280;-121.948;2023-09-08T13:27:24;4.78;;;2.85;;
82635;SDS011;72317;37.280;-121.948;2023-09-08T13:29:50;4.47;;;2.78;;
82635;SDS011;72317;37.280;-121.948;2023-09-08T13:32:18;6.47;;;3.00;;
82635;SDS011;72317;37.280;-121.948;2023-09-08T13:34:44;4.25;;;2.78;;
82635;SDS011;72317;37.280;-121.948;2023-09-08T13:37:12;4.97;;;2.60;;
82635;SDS011;72317;37.280;-121.948;2023-09-08T13:39:39;5.70;;;3.10;;
82635;SDS011;72317;37.280;-121.948;2023-09-08T13:42:05;4.80;;;2.80;;
82635;SDS011;72317;37.280;-121.948;2023-09-08T13:44:31;7.47;;;3.45;;
82635;SDS011;72317;37.280;-121.948;2023-09-08T13:46:57;5.07;;;3.20;;
82635;SDS011;72317;37.280;-121.948;2023-09-08T13:49:25;4.15;;;2.92;;
82635;SDS011;72317;37.280;-121.948;2023-09-08T13:51:51;4.63;;;2.83;;
82635;SDS011;72317;37.280;-121.948;2023-09-08T13:54:19;5.82;;;2.95;;
82635;SDS011;72317;37.280;-121.948;2023-09-08T13:56:45;3.58;;;2.72;;
82635;SDS011;72317;37.280;-121.948;2023-09-08T13:59:22;4.97;;;2.97;;
82635;SDS011;72317;37.280;-121.948;2023-09-08T14:01:48;6.13;;;2.80;;
82635;SDS011;72317;37.280;-121.948;2023-09-08T14:04:14;4.32;;;2.67;;
82635;SDS011;72317;37.280;-121.948;2023-09-08T14:06:40;7.22;;;2.83;;
82635;SDS011;72317;37.280;-121.948;2023-09-08T14:09:07;4.18;;;2.88;;
82635;SDS011;72317;37.280;-121.948;2023-09-08T14:11:33;6.50;;;2.80;;
82635;SDS011;72317;37.280;-121.948;2023-09-08T14:13:59;7.50;;;3.08;;